createdAt,value
2022-12-10T00:01:23.072Z,65512.78
2022-12-10T00:06:28.327Z,65604.94
2022-12-10T00:11:32.212Z,65556.84
2022-12-10T00:16:38.183Z,65538.50
2022-12-10T00:21:42.325Z,65574.09
2022-12-10T00:26:47.058Z,65544.03
2022-12-10T00:31:52.410Z,65602.06
2022-12-10T00:36:56.273Z,65562.81
2022-12-10T00:42:00.202Z,65556.22
2022-12-10T00:47:05.864Z,65558.44
2022-12-10T00:52:09.769Z,65508.00
2022-12-10T00:57:13.844Z,65561.63
2022-12-10T01:02:19.359Z,65574.97
2022-12-10T01:07:23.380Z,65516.31
2022-12-10T01:12:27.698Z,65490.94
2022-12-10T01:17:33.591Z,65539.75
2022-12-10T01:22:37.539Z,65549.38
2022-12-10T01:27:41.395Z,65589.81
2022-12-10T01:32:46.753Z,65529.31
2022-12-10T01:37:50.701Z,65562.91
2022-12-10T01:42:57.878Z,65615.00
2022-12-10T01:48:08.177Z,65625.00
2022-12-10T01:53:13.776Z,65584.03
2022-12-10T01:58:20.547Z,65606.88
2022-12-10T02:03:34.626Z,65626.91
2022-12-10T02:08:46.641Z,65677.44
2022-12-10T02:13:56.408Z,65587.97
2022-12-10T02:19:10.026Z,65625.66
2022-12-10T02:24:19.249Z,65707.31
2022-12-10T02:29:27.510Z,65622.13
2022-12-10T02:34:35.573Z,65626.72
2022-12-10T02:39:46.105Z,65605.81
2022-12-10T02:44:53.208Z,65644.31
2022-12-10T02:50:01.153Z,65571.75
2022-12-10T02:55:06.630Z,65507.78
2022-12-10T03:00:17.536Z,65489.47
2022-12-10T03:05:47.562Z,65510.56
2022-12-10T03:10:57.754Z,65528.25
2022-12-10T03:16:05.606Z,65518.00
2022-12-10T03:21:11.950Z,65432.09
2022-12-10T03:26:17.756Z,65393.31
2022-12-10T03:31:23.824Z,65392.69
2022-12-10T03:36:31.148Z,65383.09
2022-12-10T03:41:35.061Z,65425.72
2022-12-10T03:46:40.819Z,65405.56
2022-12-10T03:51:44.524Z,65383.09
2022-12-10T03:56:48.489Z,65370.31
2022-12-10T04:01:54.371Z,65372.97
2022-12-10T04:06:58.985Z,65413.78
2022-12-10T04:12:03.274Z,65386.94
2022-12-10T04:17:08.591Z,65391.00
2022-12-10T04:22:30.194Z,65404.50
2022-12-10T04:27:37.697Z,65402.28
2022-12-10T04:32:42.928Z,65348.81
2022-12-10T04:37:47.023Z,65329.88
2022-12-10T04:42:50.876Z,65319.22
2022-12-10T04:47:56.216Z,65319.84
2022-12-10T04:53:01.573Z,65322.94
2022-12-10T04:58:05.547Z,65303.88
2022-12-10T05:03:10.891Z,65296.44
2022-12-10T05:08:14.877Z,65304.09
2022-12-10T05:13:19.064Z,65371.91
2022-12-10T05:18:24.581Z,65324.44
2022-12-10T05:23:31.932Z,65409.41
2022-12-10T05:28:40.072Z,65271.22
2022-12-10T05:33:45.518Z,65303.16
2022-12-10T05:38:49.965Z,65261.31
2022-12-10T05:43:56.585Z,65322.94
2022-12-10T05:49:02.778Z,65463.75
2022-12-10T05:54:10.209Z,65525.03
2022-12-10T05:59:16.917Z,65528.13
2022-12-10T06:04:22.519Z,65518.00
2022-12-10T06:09:26.414Z,65487.97
2022-12-10T06:14:30.518Z,65328.16
2022-12-10T06:19:36.713Z,65271.31
2022-12-10T06:24:40.825Z,65340.06
2022-12-10T06:29:44.742Z,65350.09
2022-12-10T06:34:50.074Z,65409.09
2022-12-10T06:39:54.660Z,65355.41
2022-12-10T06:44:59.994Z,65273.97
2022-12-10T06:50:06.887Z,65299.53
2022-12-10T06:55:11.157Z,65401.09
2022-12-10T07:00:21.666Z,65244.06
2022-12-10T07:05:27.392Z,65301.56
2022-12-10T07:10:31.227Z,65230.88
2022-12-10T07:15:35.147Z,65209.63
2022-12-10T07:20:43.153Z,65226.53
2022-12-10T07:25:47.331Z,65402.28
2022-12-10T07:30:51.217Z,65450.22
2022-12-10T07:35:57.512Z,65255.03
2022-12-10T07:41:05.564Z,65333.59
2022-12-10T07:46:12.617Z,65350.09
2022-12-10T07:51:21.766Z,65254.94
2022-12-10T07:56:26.529Z,65430.63
2022-12-10T08:01:31.010Z,65346.25
2022-12-10T08:06:37.017Z,65400.69
2022-12-10T08:11:41.175Z,65231.31
2022-12-10T08:16:45.618Z,65252.16
2022-12-10T08:21:51.272Z,65332.19
2022-12-10T08:26:55.472Z,65372.03
2022-12-10T08:31:59.553Z,65292.50
2022-12-10T08:37:10.589Z,65256.53
2022-12-10T08:42:16.407Z,65248.34
2022-12-10T08:47:20.579Z,65202.69
2022-12-10T08:52:30.433Z,65227.69
2022-12-10T08:57:35.808Z,65346.69
2022-12-10T09:02:41.114Z,65270.06
2022-12-10T09:07:46.914Z,65474.19
2022-12-10T09:12:50.835Z,65385.31
2022-12-10T09:17:54.830Z,65382.47
2022-12-10T09:23:00.370Z,65264.41
2022-12-10T09:28:04.448Z,65345.28
2022-12-10T09:33:08.397Z,65280.91
2022-12-10T09:38:13.802Z,65266.00
2022-12-10T09:43:24.729Z,65318.16
2022-12-10T09:48:34.799Z,65261.97
2022-12-10T09:53:41.712Z,65242.59
2022-12-10T09:58:45.865Z,65259.72
2022-12-10T10:03:49.808Z,65311.75
2022-12-10T10:08:57.964Z,65272.81
2022-12-10T10:14:06.223Z,65288.34
2022-12-10T10:19:16.161Z,65315.59
2022-12-10T10:24:24.391Z,65402.91
2022-12-10T10:29:28.646Z,65342.44
2022-12-10T10:34:32.640Z,65321.34
2022-12-10T10:39:38.061Z,65353.28
2022-12-10T10:44:44.320Z,65270.88
2022-12-10T10:49:48.403Z,65254.28
2022-12-10T10:54:53.709Z,65340.50
2022-12-10T11:00:09.732Z,65317.63
2022-12-10T11:05:23.268Z,65260.69
2022-12-10T11:10:30.249Z,65348.50
2022-12-10T11:15:36.883Z,65282.50
2022-12-10T11:20:42.572Z,65309.00
2022-12-10T11:25:51.428Z,65350.09
2022-12-10T11:31:08.143Z,65353.28
2022-12-10T11:36:25.745Z,65369.91
2022-12-10T11:41:37.227Z,65299.00
2022-12-10T11:47:12.168Z,65281.97
2022-12-10T11:52:27.797Z,65278.78
2022-12-10T11:57:45.969Z,65290.47
2022-12-10T12:03:17.757Z,65380.97
2022-12-10T12:08:31.476Z,65288.34
2022-12-10T12:13:43.792Z,65295.81
2022-12-10T12:18:54.678Z,65349.22
2022-12-10T12:24:05.003Z,65283.56
2022-12-10T12:29:19.830Z,65275.16
2022-12-10T12:34:29.325Z,65277.59
2022-12-10T12:39:40.651Z,65267.69
2022-12-10T12:44:58.482Z,65253.22
2022-12-10T12:50:06.170Z,65250.03
2022-12-10T12:55:19.523Z,65255.38
2022-12-10T13:00:25.750Z,65293.13
2022-12-10T13:05:34.210Z,65304.84
2022-12-10T13:10:55.013Z,65291.44
2022-12-10T13:16:49.399Z,65399.09
2022-12-10T13:22:08.881Z,65382.56
2022-12-10T13:27:19.668Z,65408.13
2022-12-10T13:32:44.175Z,65349.56
2022-12-10T13:37:58.060Z,65274.09
2022-12-10T13:43:44.489Z,65233.66
2022-12-10T13:48:51.981Z,65271.31
2022-12-10T13:54:14.020Z,65320.28
2022-12-10T13:59:32.836Z,65342.00
2022-12-10T14:05:02.526Z,65284.19
2022-12-10T14:10:16.598Z,65399.09
2022-12-10T14:15:23.862Z,65298.13
2022-12-10T14:20:37.496Z,65324.34
2022-12-10T14:25:44.764Z,65339.44
2022-12-10T14:30:50.951Z,65384.91
2022-12-10T14:35:56.247Z,65327.94
2022-12-10T14:41:00.581Z,65330.94
2022-12-10T14:46:06.257Z,65318.78
2022-12-10T14:51:16.378Z,65281.53
2022-12-10T14:56:25.873Z,65312.81
2022-12-10T15:01:32.702Z,65358.63
2022-12-10T15:06:39.203Z,65380.97
2022-12-10T15:11:43.414Z,65329.53
2022-12-10T15:16:49.369Z,65333.06
2022-12-10T15:22:01.502Z,65262.91
2022-12-10T15:27:17.495Z,65263.34
2022-12-10T15:32:23.861Z,65349.13
2022-12-10T15:37:36.012Z,65220.25
2022-12-10T15:42:42.315Z,65215.88
2022-12-10T15:47:46.340Z,65214.94
2022-12-10T15:52:54.363Z,65207.06
2022-12-10T15:57:58.469Z,65248.00
2022-12-10T16:03:04.540Z,65240.03
2022-12-10T16:08:18.398Z,65300.50
2022-12-10T16:13:25.275Z,65353.81
2022-12-10T16:18:33.761Z,65289.59
2022-12-10T16:23:40.507Z,65229.81
2022-12-10T16:28:44.899Z,65214.28
2022-12-10T16:33:50.270Z,65206.97
2022-12-10T16:38:55.768Z,65200.47
2022-12-10T16:44:00.015Z,65180.50
2022-12-10T16:49:04.391Z,65220.06
2022-12-10T16:54:11.955Z,65208.03
2022-12-10T16:59:15.978Z,65299.53
2022-12-10T17:04:19.919Z,65256.97
2022-12-10T17:09:25.227Z,65298.38
2022-12-10T17:14:31.484Z,65248.13
2022-12-10T17:19:38.115Z,65297.94
2022-12-10T17:24:43.450Z,65290.56
2022-12-10T17:29:54.300Z,65292.59
2022-12-10T17:34:59.141Z,65284.72
2022-12-10T17:40:05.295Z,65200.69
2022-12-10T17:45:11.427Z,65192.06
2022-12-10T17:50:28.586Z,65246.72
2022-12-10T17:55:40.640Z,65241.97
2022-12-10T18:00:47.715Z,65254.28
2022-12-10T18:05:51.747Z,65226.09
2022-12-10T18:10:58.096Z,65217.69
2022-12-10T18:16:03.608Z,65247.38
2022-12-10T18:21:08.746Z,65284.09
2022-12-10T18:26:16.325Z,65211.63
2022-12-10T18:31:23.576Z,65235.69
2022-12-10T18:36:29.888Z,65274.09
2022-12-10T18:41:37.741Z,65224.09
2022-12-10T18:46:41.939Z,65186.84
2022-12-10T18:51:46.113Z,65238.44
2022-12-10T18:57:31.345Z,65203.13
2022-12-10T19:02:15.684Z,65206.84
2022-12-10T19:07:19.666Z,65204.72
2022-12-10T19:12:25.016Z,65208.97
2022-12-10T19:17:28.902Z,65144.88
2022-12-10T19:22:32.991Z,65201.09
2022-12-10T19:27:38.921Z,65162.84
2022-12-10T19:32:42.956Z,65238.34
2022-12-10T19:37:48.912Z,65204.31
2022-12-10T19:42:57.842Z,65143.06
2022-12-10T19:48:02.271Z,65136.16
2022-12-10T19:53:07.297Z,65087.16
2022-12-10T19:58:13.494Z,65101.28
2022-12-10T20:03:17.572Z,65151.34
2022-12-10T20:08:21.607Z,65200.13
2022-12-10T20:13:27.170Z,65189.41
2022-12-10T20:18:32.050Z,65150.72
2022-12-10T20:23:36.016Z,65178.88
2022-12-10T20:28:41.613Z,65099.69
2022-12-10T20:33:47.135Z,65214.50
2022-12-10T20:38:52.135Z,65152.22
2022-12-10T20:43:57.428Z,65167.50
2022-12-10T20:49:01.394Z,65139.44
2022-12-10T20:54:05.701Z,65138.81
2022-12-10T20:59:16.656Z,65218.56
2022-12-10T21:04:20.662Z,65150.28
2022-12-10T21:09:24.930Z,65172.81
2022-12-10T21:14:52.466Z,65124.03
2022-12-10T21:19:54.193Z,65141.34
2022-12-10T21:24:58.115Z,65160.16
2022-12-10T21:30:03.671Z,65136.69
2022-12-10T21:35:08.909Z,65179.41
2022-12-10T21:40:13.797Z,65145.41
2022-12-10T21:45:19.170Z,65194.72
2022-12-10T21:50:25.270Z,65194.63
2022-12-10T21:55:30.774Z,65163.25
2022-12-10T22:00:36.308Z,65211.84
2022-12-10T22:05:43.761Z,65218.66
2022-12-10T22:10:50.307Z,65213.66
2022-12-10T22:15:56.039Z,65210.91
2022-12-10T22:21:01.700Z,65228.75
2022-12-10T22:26:09.080Z,65140.50
2022-12-10T22:31:14.790Z,65116.06
2022-12-10T22:36:18.576Z,65168.16
2022-12-10T22:41:22.641Z,65148.47
2022-12-10T22:46:28.640Z,65102.34
2022-12-10T22:51:32.569Z,65134.13
2022-12-10T22:56:36.618Z,65130.84
2022-12-10T23:01:42.288Z,65095.44
2022-12-10T23:06:46.173Z,65156.44
2022-12-10T23:12:04.092Z,65144.22
2022-12-10T23:17:09.477Z,65162.41
2022-12-10T23:22:13.405Z,65134.56
2022-12-10T23:27:17.465Z,65139.34
2022-12-10T23:32:22.939Z,65139.97
2022-12-10T23:37:27.199Z,65154.34
2022-12-10T23:42:32.113Z,65221.84
2022-12-10T23:47:37.437Z,65248.22
2022-12-10T23:52:41.320Z,65146.88
2022-12-10T23:57:45.261Z,65116.91
